Terminal Aerodrome Forecast
Issued by NWS

Home | Current Version | Previous Version | Text Only | Print | Product List | Glossary Off
Versions: 1 2 3 4 5 6 7 8 9 10 11 12 13 14 15 16 17 18 19

084
FTUS43 KBIS 241138
TAFDIK
TAF
KDIK 241138Z 2412/2512 17014G22KT P6SM SCT200
     FM241500 16022G30KT P6SM SCT250
     FM250100 18014G23KT P6SM VCSH BKN070
     FM250700 17006KT P6SM SCT090=

USA.gov is the U.S. government's official web portal to all federal, state and local government web resources and services.